Time;durP1;ratioP1;P1;durP2;ratioP2;P2;SDS_P1;SDS_P2;PMS_P1;PMS_P2;Temp;Humidity;BMP_temperature;BMP_pressure;BME280_temperature;BME280_humidity;BME280_pressure;Samples;Min_cycle;Max_cycle;Signal;HPM_P1;HPM_P2
2022/06/05 00:00:17;;;;;;;6.40;5.90;;;;;;;18.58;70.27;99025.34;5156234;27;43310;-79
2022/06/05 00:03:02;;;;;;;5.97;5.57;;;;;;;18.63;70.13;99042.75;5155716;27;39550;-79
2022/06/05 00:05:37;;;;;;;6.27;5.70;;;;;;;18.47;70.02;99023.66;5139354;27;41046;-79
2022/06/05 00:08:12;;;;;;;5.53;5.13;;;;;;;18.56;70.32;99038.03;5174150;27;43173;-79
2022/06/05 00:10:45;;;;;;;6.60;6.10;;;;;;;18.44;70.20;99017.72;5139192;27;41560;-78
2022/06/05 00:13:18;;;;;;;5.70;5.30;;;;;;;18.50;70.18;99030.56;5138287;27;41557;-79
2022/06/05 00:15:46;;;;;;;7.33;6.73;;;;;;;18.46;69.73;99035.34;5153543;27;42001;-79
2022/06/05 00:18:16;;;;;;;6.03;5.53;;;;;;;18.41;69.83;99028.75;5156351;27;42723;-79
2022/06/05 00:20:44;;;;;;;7.40;6.80;;;;;;;18.40;70.59;99032.41;5156468;27;42805;-78
2022/06/05 00:23:12;;;;;;;7.03;6.43;;;;;;;18.37;70.66;99032.69;5138957;27;40811;-79
2022/06/05 00:25:50;;;;;;;6.23;5.70;;;;;;;18.35;70.68;99029.28;5138980;27;42031;-79
2022/06/05 00:28:27;;;;;;;6.77;6.17;;;;;;;18.31;70.67;99042.97;5155030;27;42792;-79
2022/06/05 00:31:06;;;;;;;7.13;6.53;;;;;;;18.18;70.63;99034.34;5139171;27;41125;-78
2022/06/05 00:33:37;;;;;;;7.23;6.67;;;;;;;18.23;70.62;99045.50;5173936;27;40030;-78
2022/06/05 00:36:17;;;;;;;5.60;5.10;;;;;;;18.21;70.70;99050.16;5155931;27;42935;-78
2022/06/05 00:38:55;;;;;;;5.80;5.40;;;;;;;18.03;70.46;99027.72;5174588;27;44021;-78
2022/06/05 00:41:40;;;;;;;5.70;5.20;;;;;;;18.11;70.38;99054.66;5139031;27;42144;-79
2022/06/05 00:44:12;;;;;;;6.50;5.90;;;;;;;18.09;70.63;99048.59;5171921;27;40269;-79
2022/06/05 00:46:41;;;;;;;5.47;5.00;;;;;;;18.05;70.72;99049.03;5138617;27;41102;-79
2022/06/05 00:49:11;;;;;;;6.53;6.03;;;;;;;18.03;70.93;99046.47;5156283;27;41839;-78
2022/06/05 00:51:39;;;;;;;5.90;5.43;;;;;;;17.87;70.88;99014.00;5155724;27;42016;-79
2022/06/05 00:54:08;;;;;;;6.40;5.80;;;;;;;17.87;71.55;99020.22;5155317;27;39857;-78
2022/06/05 00:56:38;;;;;;;6.33;5.80;;;;;;;17.95;71.58;99030.22;5138670;27;41866;-79
2022/06/05 00:59:06;;;;;;;6.43;5.93;;;;;;;17.83;71.48;99018.78;5156186;27;43565;-78
2022/06/05 01:01:34;;;;;;;6.10;5.60;;;;;;;17.89;71.71;99038.81;5156196;27;42262;-79
2022/06/05 01:04:02;;;;;;;6.30;5.80;;;;;;;17.87;72.11;99046.16;5174265;27;40694;-78
2022/06/05 01:06:32;;;;;;;6.80;6.30;;;;;;;17.84;71.73;99041.06;5156059;27;42264;-79
2022/06/05 01:09:00;;;;;;;6.40;5.90;;;;;;;17.77;72.36;99019.34;5166092;27;42770;-78
2022/06/05 01:11:37;;;;;;;7.13;6.53;;;;;;;17.79;72.57;99021.88;5156008;27;43264;-80
2022/06/05 01:14:13;;;;;;;7.03;6.43;;;;;;;17.78;72.54;99022.88;5138230;27;38804;-78
2022/06/05 01:16:49;;;;;;;8.23;7.53;;;;;;;17.78;72.87;99030.91;5137828;27;43165;-79
2022/06/05 01:19:43;;;;;;;7.53;6.73;;;;;;;17.63;73.14;99005.44;5138504;27;41908;-78
2022/06/05 01:22:40;;;;;;;6.70;6.13;;;;;;;17.62;73.64;99012.63;5155598;27;41257;-78
2022/06/05 01:25:42;;;;;;;8.20;7.50;;;;;;;17.69;74.45;99027.19;5135683;27;38980;-79
2022/06/05 01:28:15;;;;;;;9.27;8.50;;;;;;;17.68;74.22;99035.38;5174444;27;42864;-79
2022/06/05 01:30:48;;;;;;;7.57;6.97;;;;;;;17.65;74.15;99030.31;5138151;27;43888;-79
2022/06/05 01:33:22;;;;;;;7.60;6.90;;;;;;;17.66;74.41;99032.00;5154556;27;43215;-78
2022/06/05 01:35:59;;;;;;;6.80;6.30;;;;;;;17.65;74.33;99033.81;5155465;27;40378;-79
2022/06/05 01:38:37;;;;;;;7.60;7.00;;;;;;;17.64;75.27;99034.81;5154846;27;42071;-78
2022/06/05 01:41:12;;;;;;;7.87;7.07;;;;;;;17.62;75.16;99025.19;5155478;27;43363;-78
2022/06/05 01:43:43;;;;;;;7.37;6.77;;;;;;;17.57;74.88;99017.53;5155483;27;42068;-80
2022/06/05 01:46:16;;;;;;;8.53;7.80;;;;;;;17.61;74.74;99024.31;5155473;27;39784;-79
2022/06/05 01:48:50;;;;;;;8.50;7.80;;;;;;;17.48;75.08;98991.59;5137670;27;43480;-78
2022/06/05 01:51:24;;;;;;;6.67;6.07;;;;;;;17.53;75.06;99000.91;5138499;27;41772;-78
2022/06/05 01:53:55;;;;;;;7.43;6.83;;;;;;;17.51;74.92;99005.56;5174116;27;43281;-79
2022/06/05 01:56:29;;;;;;;8.73;7.93;;;;;;;17.52;74.80;99015.28;5138337;27;39451;-79
2022/06/05 01:59:07;;;;;;;7.33;6.73;;;;;;;17.52;74.83;99015.28;5137935;27;41962;-79
2022/06/05 02:01:39;;;;;;;7.73;7.03;;;;;;;17.51;74.65;99005.56;5170395;27;42708;-79
2022/06/05 02:04:13;;;;;;;7.23;6.63;;;;;;;17.51;74.76;99018.94;5137768;27;41314;-78
2022/06/05 02:06:47;;;;;;;6.93;6.33;;;;;;;17.49;74.89;99010.19;5140744;27;38887;-78
2022/06/05 02:09:21;;;;;;;7.10;6.50;;;;;;;17.47;74.60;99006.81;5156194;27;42633;-79
2022/06/05 02:11:51;;;;;;;6.43;5.93;;;;;;;17.45;74.62;99006.09;5163088;27;44047;-79
2022/06/05 02:14:19;;;;;;;7.37;6.73;;;;;;;17.44;74.83;99007.06;5165927;27;41410;-78
2022/06/05 02:16:47;;;;;;;7.20;6.60;;;;;;;17.43;74.81;98993.84;5148129;27;39348;-78
2022/06/05 02:19:18;;;;;;;7.17;6.47;;;;;;;17.42;74.17;98990.31;5148264;27;42071;-79
2022/06/05 02:21:46;;;;;;;5.87;5.47;;;;;;;17.40;74.18;98981.56;5148562;27;41968;-78
2022/06/05 02:24:14;;;;;;;6.43;5.93;;;;;;;17.31;73.61;98960.13;5165590;27;42631;-79
2022/06/05 02:26:43;;;;;;;6.27;5.77;;;;;;;17.37;73.91;98973.78;5158913;27;41200;-79
2022/06/05 02:29:16;;;;;;;6.20;5.70;;;;;;;17.35;73.67;98961.53;5158795;27;41472;-79
2022/06/05 02:31:57;;;;;;;5.30;4.90;;;;;;;17.23;73.60;98950.06;5155359;27;43549;-79
2022/06/05 02:34:35;;;;;;;6.50;5.97;;;;;;;17.28;73.35;98969.25;5140866;27;42265;-79
2022/06/05 02:37:15;;;;;;;6.27;5.80;;;;;;;17.19;73.91;98951.31;5156045;27;41856;-79
2022/06/05 02:39:52;;;;;;;6.93;6.43;;;;;;;17.12;74.27;98936.78;5158293;27;41668;-79
2022/06/05 02:42:30;;;;;;;7.10;6.50;;;;;;;17.18;74.57;98950.47;5141227;27;42943;-78
2022/06/05 02:45:09;;;;;;;7.43;6.83;;;;;;;17.17;74.95;98939.94;5158093;27;44342;-79
2022/06/05 02:47:56;;;;;;;9.07;8.37;;;;;;;17.14;75.51;98932.16;5156208;27;40885;-79
2022/06/05 02:50:27;;;;;;;8.23;7.53;;;;;;;17.13;75.67;98919.75;5155058;27;41662;-79
2022/06/05 02:53:01;;;;;;;8.10;7.40;;;;;;;17.11;75.52;98919.03;5175276;27;42548;-78
2022/06/05 02:55:29;;;;;;;7.83;7.07;;;;;;;17.08;75.84;98919.31;5173334;27;43014;-79
2022/06/05 02:57:57;;;;;;;8.33;7.53;;;;;;;17.07;76.14;98933.66;5176418;27;39729;-78
2022/06/05 03:00:30;;;;;;;7.97;7.27;;;;;;;17.04;76.08;98928.59;5140645;27;40558;-79
2022/06/05 03:05:44;;;;;;;6.93;6.33;;;;;;;17.01;75.99;98918.16;5140145;27;42163;-79
2022/06/05 03:08:14;;;;;;;6.43;5.90;;;;;;;16.98;75.59;98919.28;5157682;27;40408;-78
2022/06/05 03:10:44;;;;;;;8.10;7.40;;;;;;;16.85;75.47;98898.09;5176123;27;41811;-79
2022/06/05 03:13:12;;;;;;;8.23;7.53;;;;;;;16.94;75.40;98915.16;5157593;27;43490;-79
2022/06/05 03:15:42;;;;;;;7.03;6.33;;;;;;;16.92;75.30;98902.94;5157832;27;42423;-79
2022/06/05 03:18:13;;;;;;;6.77;6.17;;;;;;;16.88;74.82;98887.13;5139348;27;38634;-78
2022/06/05 03:20:41;;;;;;;6.57;6.07;;;;;;;16.87;75.02;98869.38;5140660;27;40971;-78
2022/06/05 03:23:10;;;;;;;8.93;8.13;;;;;;;16.86;75.15;98867.69;5139738;27;41779;-78
2022/06/05 03:25:40;;;;;;;8.27;7.47;;;;;;;16.88;75.81;98865.75;5157513;27;41387;-78
2022/06/05 03:28:08;;;;;;;11.13;10.13;;;;;;;16.81;75.80;98837.81;5139790;27;39797;-78
2022/06/05 03:30:39;;;;;;;9.50;8.70;;;;;;;16.93;75.94;98856.47;5140155;27;41657;-78
2022/06/05 03:33:09;;;;;;;8.27;7.57;;;;;;;16.88;76.20;98848.84;5174963;27;43823;-78
2022/06/05 03:35:38;;;;;;;8.67;7.97;;;;;;;16.88;76.05;98844.34;5140254;27;41094;-79
2022/06/05 03:38:06;;;;;;;8.33;7.70;;;;;;;16.83;75.97;98829.66;5156705;27;38778;-79
2022/06/05 03:40:34;;;;;;;8.17;7.47;;;;;;;17.02;76.26;98861.00;5157324;27;42610;-78
2022/06/05 03:43:03;;;;;;;8.97;8.17;;;;;;;16.98;75.99;98864.91;5139486;27;41670;-79
2022/06/05 03:45:31;;;;;;;9.63;8.83;;;;;;;17.07;75.83;98882.81;5157068;27;41545;-79
2022/06/05 03:47:59;;;;;;;9.03;8.33;;;;;;;16.99;75.97;98863.94;5139316;27;39049;-78
2022/06/05 03:50:29;;;;;;;9.10;8.30;;;;;;;17.09;76.36;98872.84;5156858;27;41541;-78
2022/06/05 03:52:56;;;;;;;8.23;7.53;;;;;;;17.17;76.20;98886.41;5139388;27;41377;-78
2022/06/05 03:55:25;;;;;;;8.37;7.57;;;;;;;17.25;76.13;98899.94;5156861;27;42249;-78
2022/06/05 03:57:53;;;;;;;8.27;7.57;;;;;;;17.21;75.57;98887.81;5175389;27;39912;-78
2022/06/05 04:00:22;;;;;;;9.10;8.30;;;;;;;17.41;75.51;98905.63;5156828;27;43479;-78
2022/06/05 04:02:51;;;;;;;8.17;7.57;;;;;;;17.51;75.46;98906.47;5156403;27;43769;-78
2022/06/05 04:05:22;;;;;;;7.70;7.00;;;;;;;17.63;74.68;98909.03;5175412;27;43169;-78
2022/06/05 04:07:51;;;;;;;8.13;7.43;;;;;;;17.73;75.10;98908.09;5156489;27;38721;-79
2022/06/05 04:10:20;;;;;;;8.30;7.57;;;;;;;17.76;74.41;98893.56;5156841;27;41042;-79
2022/06/05 04:12:48;;;;;;;8.73;7.93;;;;;;;17.94;74.30;98902.59;5174797;27;43008;-78
2022/06/05 04:15:15;;;;;;;10.80;9.63;;;;;;;17.99;74.14;98897.66;5156404;27;42510;-78
2022/06/05 04:17:44;;;;;;;8.63;7.83;;;;;;;18.04;73.89;98887.38;5156171;27;41247;-78
2022/06/05 04:20:13;;;;;;;9.67;8.87;;;;;;;18.01;73.91;98871.56;5156582;27;42791;-78
2022/06/05 04:22:42;;;;;;;8.27;7.47;;;;;;;18.16;73.52;98880.03;5174880;27;43516;-79
2022/06/05 04:25:15;;;;;;;8.77;7.97;;;;;;;18.24;74.02;98889.03;5175137;27;43239;-78
2022/06/05 04:27:43;;;;;;;9.07;8.37;;;;;;;18.16;73.61;98854.06;5138970;27;39020;-78
2022/06/05 04:30:12;;;;;;;9.53;8.73;;;;;;;18.37;73.37;98877.16;5138086;27;40728;-78
2022/06/05 04:32:39;;;;;;;8.87;8.07;;;;;;;18.40;73.86;98883.09;5138537;27;41918;-78
2022/06/05 04:35:08;;;;;;;8.67;7.87;;;;;;;18.44;73.55;98884.47;5174975;27;42213;-78
2022/06/05 04:37:36;;;;;;;9.37;8.57;;;;;;;18.48;73.43;98895.75;5156245;27;40162;-79
2022/06/05 04:40:05;;;;;;;8.53;7.80;;;;;;;18.53;73.25;98890.81;5156186;27;42421;-79
2022/06/05 04:42:34;;;;;;;7.87;7.23;;;;;;;18.61;73.07;98901.69;5155800;27;42747;-79
2022/06/05 04:45:02;;;;;;;8.33;7.57;;;;;;;18.67;72.90;98889.53;5138736;27;42646;-79
2022/06/05 04:47:30;;;;;;;8.63;7.83;;;;;;;18.72;72.73;98879.19;5155636;27;39974;-78
2022/06/05 04:49:58;;;;;;;9.13;8.30;;;;;;;18.77;72.94;98875.09;5138825;27;40649;-79
2022/06/05 04:52:25;;;;;;;7.53;6.93;;;;;;;18.82;72.73;98888.91;5138613;27;43381;-79
2022/06/05 04:54:53;;;;;;;8.77;8.07;;;;;;;18.83;72.71;98890.59;5156275;27;42670;-79
2022/06/05 04:57:21;;;;;;;8.50;7.77;;;;;;;18.99;72.30;98908.75;5155756;27;38694;-79
2022/06/05 04:59:51;;;;;;;8.13;7.53;;;;;;;19.01;71.89;98877.25;5156031;27;40887;-79
2022/06/05 05:02:19;;;;;;;8.50;7.77;;;;;;;19.12;72.02;98866.31;5137898;27;41836;-79
2022/06/05 05:04:47;;;;;;;8.80;7.93;;;;;;;19.24;71.71;98856.22;5155752;27;43200;-79
2022/06/05 05:07:15;;;;;;;8.80;8.13;;;;;;;19.30;71.26;98823.38;5138337;27;40219;-79
2022/06/05 05:09:43;;;;;;;8.93;8.23;;;;;;;19.37;71.06;98792.25;5174704;27;42362;-78
2022/06/05 05:12:11;;;;;;;9.20;8.50;;;;;;;19.47;71.07;98793.00;5137719;27;42871;-79
2022/06/05 05:14:39;;;;;;;8.33;7.63;;;;;;;19.56;71.03;98797.47;5138862;27;42132;-79
2022/06/05 05:17:08;;;;;;;9.00;8.30;;;;;;;19.44;70.79;98766.44;5138344;27;39225;-78
2022/06/05 05:19:36;;;;;;;8.97;8.27;;;;;;;19.51;70.94;98778.31;5155658;27;42358;-78
2022/06/05 05:22:04;;;;;;;9.40;8.47;;;;;;;19.74;70.59;98810.94;5138048;27;41416;-80
2022/06/05 05:24:32;;;;;;;8.97;8.17;;;;;;;19.70;70.44;98810.38;5174189;27;42224;-79
2022/06/05 05:27:00;;;;;;;9.43;8.63;;;;;;;19.91;70.20;98841.44;5155656;27;40714;-78
2022/06/05 05:29:28;;;;;;;9.50;8.60;;;;;;;19.99;69.96;98858.50;5155407;27;40359;-78
2022/06/05 05:31:56;;;;;;;8.63;7.87;;;;;;;20.09;69.79;98877.25;5137841;27;45149;-78
2022/06/05 05:34:25;;;;;;;8.30;7.60;;;;;;;19.83;69.47;98819.88;5174171;27;42154;-79
2022/06/05 05:36:53;;;;;;;8.43;7.70;;;;;;;20.20;69.00;98871.59;5137811;27;40240;-79
2022/06/05 05:42:05;;;;;;;7.47;6.93;;;;;;;20.35;68.90;98853.94;5141625;27;41682;-77
2022/06/05 05:44:36;;;;;;;7.70;7.10;;;;;;;20.48;68.77;98863.44;5141699;27;41178;-77
2022/06/05 05:47:06;;;;;;;6.87;6.33;;;;;;;20.57;68.29;98868.72;5158766;27;39419;-77
2022/06/05 05:49:35;;;;;;;7.70;7.10;;;;;;;20.63;68.44;98876.16;5158903;27;42857;-77
2022/06/05 05:52:04;;;;;;;7.27;6.53;;;;;;;20.66;68.17;98873.13;5158528;27;41747;-78
2022/06/05 05:54:32;;;;;;;7.33;6.63;;;;;;;20.87;68.05;98896.13;5141202;27;41284;-78
2022/06/05 05:56:59;;;;;;;6.60;6.10;;;;;;;20.96;67.97;98912.16;5158635;27;41757;-77
2022/06/05 05:59:28;;;;;;;8.10;7.40;;;;;;;21.01;67.79;98899.09;5158760;27;41821;-77
2022/06/05 06:01:56;;;;;;;6.70;6.20;;;;;;;21.14;67.59;98904.84;5141345;27;41475;-79
2022/06/05 06:04:24;;;;;;;7.10;6.53;;;;;;;21.27;67.33;98899.03;5158673;27;40957;-78
2022/06/05 06:06:55;;;;;;;7.00;6.50;;;;;;;21.28;66.89;98879.16;5177334;27;39760;-78
2022/06/05 06:09:22;;;;;;;6.27;5.77;;;;;;;21.48;66.53;98901.31;5177679;27;41543;-79
2022/06/05 06:11:50;;;;;;;7.80;7.20;;;;;;;21.49;66.62;98878.75;5158277;27;44292;-79
2022/06/05 06:14:18;;;;;;;6.73;6.20;;;;;;;21.47;66.10;98878.06;5177261;27;43135;-79
2022/06/05 06:16:46;;;;;;;6.67;6.07;;;;;;;21.61;66.28;98909.78;5140715;27;40366;-79
2022/06/05 06:19:14;;;;;;;7.10;6.60;;;;;;;21.60;66.05;98908.09;5140540;27;42916;-78
2022/06/05 06:21:42;;;;;;;7.20;6.63;;;;;;;21.59;66.25;98925.25;5140802;27;42679;-79
2022/06/05 06:24:11;;;;;;;6.97;6.37;;;;;;;21.56;66.27;98939.06;5158469;27;42205;-78
2022/06/05 06:26:41;;;;;;;6.73;6.23;;;;;;;21.39;66.47;98926.53;5158726;27;41387;-79
2022/06/05 06:29:10;;;;;;;7.20;6.60;;;;;;;21.45;66.47;98947.44;5177011;27;41804;-80
2022/06/05 06:31:39;;;;;;;6.80;6.30;;;;;;;21.48;66.11;98958.75;5157514;27;42821;-79
2022/06/05 06:34:07;;;;;;;6.93;6.43;;;;;;;21.46;65.88;98965.31;5140561;27;41799;-78
2022/06/05 06:36:36;;;;;;;6.73;6.23;;;;;;;21.43;65.85;98968.31;5140340;27;39300;-79
2022/06/05 06:39:04;;;;;;;6.13;5.63;;;;;;;21.38;66.21;98971.50;5158169;27;41676;-79
2022/06/05 06:41:34;;;;;;;7.07;6.57;;;;;;;21.33;66.29;98972.97;5157983;27;43765;-79
2022/06/05 06:44:03;;;;;;;6.07;5.57;;;;;;;21.35;66.44;98966.44;5140714;27;41198;-78
2022/06/05 06:46:31;;;;;;;6.73;6.13;;;;;;;21.48;66.55;98971.38;5140558;27;39744;-78
2022/06/05 06:48:59;;;;;;;6.30;5.80;;;;;;;21.61;66.51;98966.38;5176731;27;43018;-79
2022/06/05 06:51:27;;;;;;;6.77;6.27;;;;;;;21.81;66.55;98957.00;5175716;27;42710;-79
2022/06/05 06:53:55;;;;;;;6.60;6.10;;;;;;;21.98;66.40;98957.88;5157596;27;41095;-79
2022/06/05 06:56:26;;;;;;;6.90;6.40;;;;;;;22.10;65.91;98945.78;5140451;27;39056;-79
2022/06/05 06:58:55;;;;;;;6.27;5.67;;;;;;;22.10;65.63;98923.38;5140731;27;42003;-78
2022/06/05 07:01:23;;;;;;;7.03;6.47;;;;;;;22.14;66.03;98919.31;5140118;27;41735;-79
2022/06/05 07:03:51;;;;;;;6.77;6.27;;;;;;;22.10;66.27;98899.09;5140029;27;42472;-79
2022/06/05 07:06:20;;;;;;;6.83;6.33;;;;;;;21.99;66.03;98885.94;5157832;27;40959;-79
2022/06/05 07:08:49;;;;;;;6.57;6.00;;;;;;;21.92;66.42;98882.19;5139939;27;42352;-78
2022/06/05 07:11:17;;;;;;;6.90;6.40;;;;;;;21.91;65.80;98893.97;5176477;27;43170;-79
2022/06/05 07:13:45;;;;;;;6.30;5.80;;;;;;;21.91;65.86;98896.66;5156884;27;42208;-79
2022/06/05 07:16:15;;;;;;;6.83;6.33;;;;;;;21.88;65.84;98895.19;5157597;27;38766;-79
2022/06/05 07:18:43;;;;;;;7.10;6.40;;;;;;;21.80;65.46;98874.41;5176021;27;42776;-79
2022/06/05 07:21:13;;;;;;;5.90;5.43;;;;;;;21.74;65.29;98869.72;5176300;27;43074;-80
2022/06/05 07:23:41;;;;;;;8.53;7.87;;;;;;;21.64;65.29;98874.38;5157682;27;42175;-79
2022/06/05 07:26:11;;;;;;;8.00;7.23;;;;;;;21.57;65.62;98862.59;5157956;27;40441;-79
2022/06/05 07:28:39;;;;;;;8.87;7.90;;;;;;;21.43;65.65;98857.84;5140290;27;40718;-79
2022/06/05 07:31:08;;;;;;;9.33;8.43;;;;;;;21.16;67.04;98832.81;5140485;27;41838;-79
2022/06/05 07:33:38;;;;;;;9.43;8.73;;;;;;;20.81;68.53;98776.47;5157202;27;42325;-79
2022/06/05 07:36:08;;;;;;;9.77;8.97;;;;;;;20.55;70.37;98756.84;5157977;27;41561;-80
2022/06/05 07:38:36;;;;;;;8.57;7.80;;;;;;;20.41;71.61;98748.38;5139973;27;42346;-81
2022/06/05 07:41:05;;;;;;;9.73;8.83;;;;;;;20.30;72.30;98762.09;5176083;27;42932;-81
2022/06/05 07:43:34;;;;;;;10.53;9.63;;;;;;;20.06;73.10;98751.19;5157586;27;43072;-80
2022/06/05 07:46:03;;;;;;;10.00;9.00;;;;;;;20.07;73.74;98774.38;5140480;27;39906;-80
2022/06/05 07:48:31;;;;;;;10.57;9.63;;;;;;;19.93;74.31;98783.00;5157501;27;41722;-80
2022/06/05 07:56:36;;;;;;;9.50;8.63;;;;;;;19.66;75.51;98894.13;5139712;27;39074;-81
2022/06/05 07:59:03;;;;;;;8.67;7.97;;;;;;;19.57;75.51;98874.41;5139921;27;43165;-80
2022/06/05 08:01:31;;;;;;;10.27;9.27;;;;;;;19.73;75.62;98877.25;5157219;27;41886;-81
2022/06/05 08:03:59;;;;;;;9.30;8.60;;;;;;;19.78;75.26;98881.34;5157520;27;42700;-81
2022/06/05 08:06:29;;;;;;;11.43;10.43;;;;;;;19.80;75.30;98871.25;5157898;27;41003;-81
2022/06/05 08:08:56;;;;;;;8.50;7.70;;;;;;;19.93;74.84;98879.78;5176069;27;41531;-81
2022/06/05 08:11:24;;;;;;;8.70;8.00;;;;;;;20.04;75.23;98871.47;5140040;27;41747;-82
2022/06/05 08:13:52;;;;;;;9.70;8.90;;;;;;;20.09;75.13;98858.41;5175684;27;42679;-81
2022/06/05 08:16:20;;;;;;;9.50;8.70;;;;;;;20.11;74.66;98842.97;5140059;27;39119;-81
2022/06/05 08:18:50;;;;;;;8.50;7.73;;;;;;;20.20;74.81;98836.66;5157068;27;40987;-79
2022/06/05 08:21:19;;;;;;;10.60;9.50;;;;;;;20.23;74.60;98833.66;5176123;27;42107;-80
2022/06/05 08:23:48;;;;;;;8.23;7.60;;;;;;;20.27;74.09;98813.53;5156733;27;42975;-80
2022/06/05 08:26:16;;;;;;;8.87;8.17;;;;;;;20.31;73.88;98801.44;5157248;27;40062;-80
2022/06/05 08:28:43;;;;;;;7.23;6.63;;;;;;;20.43;73.51;98796.66;5175817;27;41718;-80
2022/06/05 08:31:11;;;;;;;9.57;8.80;;;;;;;20.45;73.30;98781.19;5157053;27;42070;-79
2022/06/05 08:33:41;;;;;;;8.87;7.90;;;;;;;20.31;74.05;98766.47;5139491;27;42972;-80
2022/06/05 08:36:09;;;;;;;8.23;7.63;;;;;;;20.35;74.22;98773.25;5139767;27;39107;-80
2022/06/05 08:41:37;;;;;;;8.97;8.27;;;;;;;20.35;74.44;98767.88;5153817;27;42724;-79
2022/06/05 08:44:18;;;;;;;8.83;8.13;;;;;;;20.35;74.97;98746.34;5139307;27;41341;-80
2022/06/05 08:46:52;;;;;;;9.80;8.80;;;;;;;20.21;75.18;98720.03;5139066;27;40704;-81
2022/06/05 08:49:26;;;;;;;9.80;8.87;;;;;;;20.21;75.63;98709.25;5138969;27;43263;-79
2022/06/05 08:52:01;;;;;;;8.97;8.20;;;;;;;20.11;76.24;98683.50;5138969;27;44511;-80
2022/06/05 08:54:38;;;;;;;9.37;8.57;;;;;;;20.19;76.83;98703.19;5139428;27;42971;-79
2022/06/05 08:57:14;;;;;;;8.77;8.00;;;;;;;20.30;76.70;98727.13;5153936;27;40028;-79
2022/06/05 08:59:48;;;;;;;9.00;8.27;;;;;;;20.21;76.77;98717.34;5153056;27;41780;-79
2022/06/05 09:02:21;;;;;;;8.73;7.97;;;;;;;20.38;76.88;98762.19;5138470;27;44540;-81
2022/06/05 09:04:55;;;;;;;8.73;8.03;;;;;;;20.51;76.27;98760.91;5138746;27;41232;-77
2022/06/05 09:07:28;;;;;;;6.97;6.47;;;;;;;20.60;75.92;98743.78;5153495;27;40156;-78
2022/06/05 09:10:00;;;;;;;8.63;7.93;;;;;;;20.76;75.79;98730.38;5155953;27;40817;-78
2022/06/05 09:12:37;;;;;;;8.53;7.90;;;;;;;20.85;76.42;98731.25;5153067;27;43799;-79
2022/06/05 09:15:15;;;;;;;9.13;8.40;;;;;;;20.97;75.78;98725.38;5151825;27;42198;-76
2022/06/05 09:17:50;;;;;;;8.97;8.17;;;;;;;21.12;75.33;98718.34;5137802;27;42127;-78
2022/06/05 09:20:19;;;;;;;8.77;8.00;;;;;;;21.16;75.01;98706.22;5152925;27;42026;-81
2022/06/05 09:22:54;;;;;;;9.90;9.00;;;;;;;21.30;74.36;98714.69;5155501;27;44063;-77
2022/06/05 09:25:39;;;;;;;9.73;8.83;;;;;;;21.40;74.14;98715.38;5152537;27;42429;-78
2022/06/05 09:28:44;;;;;;;8.33;7.60;;;;;;;21.51;73.70;98706.97;5154536;27;41272;-76
2022/06/05 09:31:34;;;;;;;8.03;7.33;;;;;;;21.69;73.15;98731.03;5172564;27;42650;-76
2022/06/05 09:34:10;;;;;;;8.77;8.07;;;;;;;21.87;72.47;98699.34;5155345;27;43707;-76
2022/06/05 09:36:40;;;;;;;7.57;6.97;;;;;;;21.97;71.67;98688.38;5138016;27;41194;-76
2022/06/05 09:39:25;;;;;;;9.03;8.13;;;;;;;22.03;71.12;98674.22;5137626;27;41895;-77
2022/06/05 09:42:08;;;;;;;8.87;8.17;;;;;;;22.11;71.38;98668.81;5152283;27;41707;-76
2022/06/05 09:45:00;;;;;;;8.43;7.73;;;;;;;22.12;70.95;98657.03;5154918;27;41719;-76
2022/06/05 09:47:35;;;;;;;7.87;7.27;;;;;;;22.00;71.30;98642.22;5154234;27;40922;-77
2022/06/05 09:50:09;;;;;;;9.00;8.20;;;;;;;21.96;72.11;98640.84;5152322;27;40119;-76
2022/06/05 09:52:37;;;;;;;7.47;6.97;;;;;;;21.96;72.18;98640.84;5154433;27;43115;-77
2022/06/05 09:55:12;;;;;;;9.50;7.97;;;;;;;21.98;72.42;98620.78;5137795;27;44634;-78
2022/06/05 10:00:48;;;;;;;7.33;6.73;;;;;;;22.01;72.70;98606.13;5154680;27;38978;-77
2022/06/05 10:03:21;;;;;;;7.97;7.37;;;;;;;21.97;72.64;98599.38;5137117;27;41740;-76
2022/06/05 10:06:17;;;;;;;7.57;6.97;;;;;;;21.96;73.53;98601.25;5137881;27;41957;-76
2022/06/05 10:08:48;;;;;;;7.90;7.20;;;;;;;21.70;72.67;98576.38;5154197;27;42378;-80
2022/06/05 10:11:24;;;;;;;9.33;8.43;;;;;;;21.83;73.16;98587.47;5173747;27;41300;-76
2022/06/05 10:14:02;;;;;;;7.70;7.10;;;;;;;21.91;73.04;98592.81;5136407;27;40600;-77
2022/06/05 10:16:38;;;;;;;6.60;6.03;;;;;;;21.97;72.91;98588.59;5137290;27;42921;-77
2022/06/05 10:19:26;;;;;;;7.97;7.27;;;;;;;22.01;71.96;98579.16;5137448;27;42319;-77
2022/06/05 10:22:03;;;;;;;6.63;6.13;;;;;;;22.09;71.76;98573.75;5155012;27;40350;-78
2022/06/05 10:24:44;;;;;;;7.23;6.63;;;;;;;22.13;71.23;98565.09;5170589;27;41670;-77
2022/06/05 10:27:16;;;;;;;7.50;6.90;;;;;;;22.14;71.54;98576.75;5171987;27;42738;-78
2022/06/05 10:29:49;;;;;;;7.87;7.27;;;;;;;22.17;71.06;98579.94;5158414;27;42481;-78
2022/06/05 10:32:25;;;;;;;6.90;6.30;;;;;;;22.22;70.72;98576.72;5155816;27;40019;-77
2022/06/05 10:35:01;;;;;;;6.57;6.07;;;;;;;22.30;70.84;98579.38;5155082;27;41844;-77
2022/06/05 10:37:35;;;;;;;7.07;6.47;;;;;;;22.38;70.00;98591.97;5158374;27;41678;-78
2022/06/05 10:40:25;;;;;;;7.10;6.50;;;;;;;22.46;69.95;98617.06;5140879;27;42283;-80
2022/06/05 10:42:59;;;;;;;6.83;6.33;;;;;;;22.52;70.08;98610.94;5175214;27;40030;-78
2022/06/05 10:45:41;;;;;;;7.10;6.10;;;;;;;22.59;69.87;98605.69;5173847;27;42012;-78
2022/06/05 10:48:25;;;;;;;6.43;5.87;;;;;;;22.63;69.22;98603.44;5157523;27;42604;-78
2022/06/05 10:50:59;;;;;;;5.63;5.23;;;;;;;22.65;69.86;98631.97;5158027;27;42355;-78
2022/06/05 10:53:36;;;;;;;6.57;6.07;;;;;;;22.61;69.70;98636.03;5140030;27;40074;-77
2022/06/05 10:56:18;;;;;;;6.87;6.37;;;;;;;22.60;69.86;98634.38;5140592;27;40705;-80
2022/06/05 10:58:53;;;;;;;6.13;5.63;;;;;;;22.55;69.65;98625.94;5157684;27;45291;-79
2022/06/05 11:01:36;;;;;;;5.23;4.83;;;;;;;22.61;70.04;98633.34;5140262;27;41693;-78
2022/06/05 11:04:17;;;;;;;6.10;5.60;;;;;;;22.54;70.45;98646.69;5157591;27;39640;-78
2022/06/05 11:06:54;;;;;;;5.83;5.23;;;;;;;22.49;70.95;98650.97;5173320;27;42991;-78
2022/06/05 11:09:43;;;;;;;6.33;5.73;;;;;;;22.45;71.47;98649.63;5154547;27;43984;-80
2022/06/05 11:15:17;;;;;;;6.67;6.07;;;;;;;22.55;71.72;98626.78;5157400;27;39497;-79
2022/06/05 11:17:56;;;;;;;6.83;6.23;;;;;;;22.81;71.33;98636.47;5156019;27;42499;-80
2022/06/05 11:20:27;;;;;;;6.97;6.37;;;;;;;23.12;71.10;98642.63;5139779;27;41908;-79
2022/06/05 11:23:01;;;;;;;6.83;6.27;;;;;;;23.44;69.78;98651.50;5140165;27;41318;-78
2022/06/05 11:25:33;;;;;;;6.90;6.40;;;;;;;23.80;68.17;98635.47;5154878;27;40907;-79
2022/06/05 11:28:16;;;;;;;5.97;5.50;;;;;;;24.60;67.06;98663.44;5156053;27;41808;-80
2022/06/05 11:30:50;;;;;;;5.50;5.00;;;;;;;25.47;64.08;98676.88;5173284;27;43146;-79
2022/06/05 11:33:23;;;;;;;5.90;5.40;;;;;;;25.92;61.33;98653.91;5156380;27;42541;-79
2022/06/05 11:36:12;;;;;;;5.70;5.20;;;;;;;26.65;60.70;98679.63;5154591;27;40009;-81
2022/06/05 11:38:58;;;;;;;5.30;4.90;;;;;;;26.94;59.60;98675.78;5156324;27;41645;-79
2022/06/05 11:41:32;;;;;;;6.23;5.73;;;;;;;27.11;58.90;98692.53;5154404;27;42565;-80
2022/06/05 11:44:23;;;;;;;6.10;5.60;;;;;;;27.04;57.15;98705.28;5157582;27;43384;-80
2022/06/05 11:46:58;;;;;;;5.67;5.27;;;;;;;27.03;57.40;98707.16;5139821;27;41767;-79
2022/06/05 11:49:39;;;;;;;5.20;4.80;;;;;;;27.15;56.62;98710.97;5140203;27;43254;-81
2022/06/05 11:52:14;;;;;;;5.13;4.73;;;;;;;28.15;56.63;98690.09;5155007;27;44191;-81
2022/06/05 11:54:51;;;;;;;5.63;5.23;;;;;;;30.08;54.10;98711.56;5157421;27;41460;-80
2022/06/05 11:57:26;;;;;;;5.57;5.17;;;;;;;30.62;49.77;98720.94;5140504;27;39619;-80
2022/06/05 12:00:07;;;;;;;5.33;4.93;;;;;;;30.77;48.67;98735.06;5146131;27;41858;-81
2022/06/05 12:02:49;;;;;;;5.80;5.30;;;;;;;30.46;48.25;98737.88;5167059;27;44689;-80
2022/06/05 12:05:24;;;;;;;4.83;4.53;;;;;;;29.98;47.98;98735.84;5149538;27;42044;-81
2022/06/05 12:07:59;;;;;;;5.20;4.90;;;;;;;29.67;48.86;98735.84;5165324;27;40540;-80
2022/06/05 12:10:30;;;;;;;4.73;4.43;;;;;;;29.38;49.23;98735.41;5148817;27;40637;-81
2022/06/05 12:13:18;;;;;;;5.53;5.13;;;;;;;29.02;48.17;98705.16;5166477;27;44488;-81
2022/06/05 12:15:57;;;;;;;4.73;4.33;;;;;;;28.95;48.79;98727.00;5177417;27;42850;-80
2022/06/05 12:18:30;;;;;;;4.33;3.93;;;;;;;29.05;49.42;98732.00;5156549;27;40679;-81